createdAt,value
2018-01-23T00:00:18.679Z,92.23
2018-01-23T00:01:18.693Z,92.61
2018-01-23T00:02:18.708Z,92.04
2018-01-23T00:03:18.721Z,92.04
2018-01-23T00:04:18.735Z,91.94
2018-01-23T00:05:18.748Z,92.14
2018-01-23T00:06:18.779Z,91.94
2018-01-23T00:07:18.527Z,92.04
2018-01-23T00:08:18.793Z,91.94
2018-01-23T00:09:18.557Z,91.94
2018-01-23T00:10:18.824Z,91.94
2018-01-23T00:11:18.588Z,91.66
2018-01-23T00:12:18.853Z,91.71
2018-01-23T00:13:18.867Z,91.94
2018-01-23T00:14:18.886Z,92.18
2018-01-23T00:15:18.645Z,91.85
2018-01-23T00:16:18.918Z,91.42
2018-01-23T00:17:18.672Z,92.04
2018-01-23T00:18:18.711Z,91.75
2018-01-23T00:19:18.703Z,92.04
2018-01-23T00:20:18.967Z,91.89
2018-01-23T00:21:18.735Z,91.89
2018-01-23T00:22:18.997Z,91.52
2018-01-23T00:23:18.760Z,92.18
2018-01-23T00:24:18.775Z,91.24
2018-01-23T00:25:19.043Z,91.61
2018-01-23T00:26:19.055Z,91.94
2018-01-23T00:27:18.819Z,91.52
2018-01-23T00:28:18.835Z,91.85
2018-01-23T00:29:19.101Z,91.94
2018-01-23T00:30:19.128Z,91.66
2018-01-23T00:31:18.935Z,91.56
2018-01-23T00:32:19.143Z,92.14
2018-01-23T00:33:18.908Z,91.85
2018-01-23T00:34:19.175Z,91.85
2018-01-23T00:35:19.197Z,91.85
2018-01-23T00:36:19.202Z,92.14
2018-01-23T00:37:19.218Z,92.14
2018-01-23T00:38:19.232Z,92.14
2018-01-23T00:39:19.247Z,91.94
2018-01-23T00:40:19.017Z,92.14
2018-01-23T00:41:19.278Z,91.85
2018-01-23T00:42:19.290Z,91.85
2018-01-23T00:43:19.305Z,91.66
2018-01-23T00:44:19.070Z,91.85
2018-01-23T00:45:19.087Z,92.04
2018-01-23T00:46:19.351Z,92.14
2018-01-23T00:47:19.131Z,91.66
2018-01-23T00:48:19.388Z,91.66
2018-01-23T00:49:19.144Z,91.66
2018-01-23T00:50:19.422Z,92.23
2018-01-23T00:51:19.171Z,92.52
2018-01-23T00:52:19.436Z,92.23
2018-01-23T00:53:19.198Z,93.18
2018-01-23T00:54:19.212Z,92.9
2018-01-23T00:55:19.478Z,92.9
2018-01-23T00:56:19.495Z,92.71
2018-01-23T00:57:19.508Z,92.9
2018-01-23T00:58:19.271Z,92.9
2018-01-23T00:59:19.539Z,92.71
2018-01-23T01:00:19.305Z,93.08
2018-01-23T01:01:19.316Z,93.08
2018-01-23T01:02:19.581Z,92.99
2018-01-23T01:03:19.600Z,92.8
2018-01-23T01:04:19.614Z,92.99
2018-01-23T01:05:19.623Z,92.9
2018-01-23T01:06:19.639Z,92.8
2018-01-23T01:07:19.406Z,92.8
2018-01-23T01:08:19.418Z,92.9
2018-01-23T01:09:19.691Z,92.23
2018-01-23T01:10:19.469Z,93.08
2018-01-23T01:11:19.465Z,92.9
2018-01-23T01:12:19.729Z,92.8
2018-01-23T01:13:19.495Z,93.08
2018-01-23T01:14:19.758Z,92.9
2018-01-23T01:15:19.775Z,92.42
2018-01-23T01:16:19.548Z,92.14
2018-01-23T01:17:19.548Z,92.33
2018-01-23T01:18:19.816Z,92.42
2018-01-23T01:19:19.578Z,92.04
2018-01-23T01:20:19.845Z,92.14
2018-01-23T01:21:19.609Z,92.14
2018-01-23T01:22:19.619Z,93.08
2018-01-23T01:23:19.885Z,91.94
2018-01-23T01:24:19.902Z,92.23
2018-01-23T01:25:19.919Z,92.23
2018-01-23T01:26:19.676Z,91.94
2018-01-23T01:27:19.691Z,91.85
2018-01-23T01:28:19.706Z,92.04
2018-01-23T01:29:20.014Z,92.14
2018-01-23T01:30:19.987Z,92.42
2018-01-23T01:31:20.025Z,91.85
2018-01-23T01:32:20.022Z,92.04
2018-01-23T01:33:20.033Z,92.14
2018-01-23T01:34:19.795Z,91.85
2018-01-23T01:35:20.059Z,91.56
2018-01-23T01:36:20.080Z,91.85
2018-01-23T01:37:20.094Z,92.04
2018-01-23T01:38:20.231Z,91.94
2018-01-23T01:39:19.887Z,92.04
2018-01-23T01:40:20.132Z,91.56
2018-01-23T01:41:20.152Z,92.04
2018-01-23T01:42:20.161Z,91.85
2018-01-23T01:43:20.177Z,91.94
2018-01-23T01:44:20.193Z,91.66
2018-01-23T01:45:20.216Z,92.33
2018-01-23T01:46:19.970Z,92.61
2018-01-23T01:47:20.235Z,91.85
2018-01-23T01:48:20.258Z,91.75
2018-01-23T01:49:20.014Z,92.14
2018-01-23T01:50:20.029Z,92.23
2018-01-23T01:51:20.040Z,92.33
2018-01-23T01:52:20.308Z,92.33
2018-01-23T01:53:20.323Z,92.52
2018-01-23T01:54:20.336Z,92.33
2018-01-23T01:55:20.353Z,92.33
2018-01-23T01:56:20.364Z,92.33
2018-01-23T01:57:20.382Z,91.66
2018-01-23T01:58:20.144Z,91.66
2018-01-23T01:59:20.408Z,91.85
2018-01-23T02:00:20.191Z,91.94
2018-01-23T02:01:20.185Z,92.04
2018-01-23T02:02:20.200Z,92.14
2018-01-23T02:03:20.465Z,91.85
2018-01-23T02:04:20.479Z,91.66
2018-01-23T02:05:20.241Z,91.75
2018-01-23T02:06:20.513Z,92.04
2018-01-23T02:07:20.272Z,92.23
2018-01-23T02:08:20.318Z,92.14
2018-01-23T02:09:20.561Z,92.14
2018-01-23T02:10:20.566Z,92.14
2018-01-23T02:11:20.579Z,91.66
2018-01-23T02:12:20.345Z,92.14
2018-01-23T02:13:20.607Z,92.04
2018-01-23T02:14:20.390Z,92.14
2018-01-23T02:15:20.639Z,91.94
2018-01-23T02:16:20.689Z,92.09
2018-01-23T02:17:20.413Z,91.71
2018-01-23T02:18:20.428Z,91.61
2018-01-23T02:19:20.443Z,92.47
2018-01-23T02:20:20.457Z,92.33
2018-01-23T02:21:20.725Z,91.94
2018-01-23T02:22:20.497Z,92.14
2018-01-23T02:23:20.500Z,91.85
2018-01-23T02:24:20.764Z,92.14
2018-01-23T02:25:20.527Z,92.14
2018-01-23T02:26:20.797Z,91.94
2018-01-23T02:27:20.814Z,91.71
2018-01-23T02:28:20.581Z,91.85
2018-01-23T02:29:20.836Z,92.47
2018-01-23T02:30:20.850Z,92.14
2018-01-23T02:31:20.876Z,92.14
2018-01-23T02:32:20.626Z,92.04
2018-01-23T02:33:20.891Z,91.94
2018-01-23T02:34:20.908Z,91.71
2018-01-23T02:35:20.925Z,91.94
2018-01-23T02:36:20.944Z,92.42
2018-01-23T02:37:20.696Z,91.9
2018-01-23T02:38:20.710Z,92.04
2018-01-23T02:39:20.975Z,92.14
2018-01-23T02:40:20.738Z,92.04
2018-01-23T02:41:21.001Z,92.14
2018-01-23T02:42:21.020Z,91.85
2018-01-23T02:43:20.798Z,91.85
2018-01-23T02:44:21.048Z,92.04
2018-01-23T02:45:20.808Z,92.04
2018-01-23T02:46:20.827Z,91.85
2018-01-23T02:47:21.105Z,92.14
2018-01-23T02:48:20.854Z,92.04
2018-01-23T02:49:21.118Z,91.94
2018-01-23T02:50:21.135Z,92.14
2018-01-23T02:51:20.915Z,92.14
2018-01-23T02:52:21.162Z,91.94
2018-01-23T02:53:21.182Z,92.14
2018-01-23T02:54:21.191Z,91.94
2018-01-23T02:55:21.206Z,91.85
2018-01-23T02:56:20.966Z,92.28
2018-01-23T02:57:20.984Z,92.09
2018-01-23T02:58:20.995Z,92.28
2018-01-23T02:59:21.261Z,92.18
2018-01-23T03:00:21.289Z,92.66
2018-01-23T03:01:21.288Z,92.47
2018-01-23T03:02:21.052Z,92.57
2018-01-23T03:03:21.318Z,92.57
2018-01-23T03:04:21.333Z,92.09
2018-01-23T03:05:21.348Z,93.04
2018-01-23T03:06:21.363Z,92.76
2018-01-23T03:07:21.125Z,92.66
2018-01-23T03:08:21.446Z,92.76
2018-01-23T03:09:21.148Z,93.32
2018-01-23T03:10:21.413Z,92.85
2018-01-23T03:11:21.429Z,93.13
2018-01-23T03:12:21.441Z,93.13
2018-01-23T03:13:21.455Z,93.13
2018-01-23T03:14:21.478Z,93.04
2018-01-23T03:15:21.235Z,92.57
2018-01-23T03:16:21.246Z,93.41
2018-01-23T03:17:21.515Z,92.94
2018-01-23T03:18:21.525Z,93.23
2018-01-23T03:19:21.294Z,92.85
2018-01-23T03:20:21.557Z,92.57
2018-01-23T03:21:21.568Z,92.94
2018-01-23T03:22:21.330Z,92.94
2018-01-23T03:23:21.599Z,92.76
2018-01-23T03:24:21.356Z,92.18
2018-01-23T03:25:21.624Z,92.85
2018-01-23T03:26:21.639Z,92.18
2018-01-23T03:27:21.401Z,92.85
2018-01-23T03:28:21.416Z,92.33
2018-01-23T03:29:21.432Z,92.61
2018-01-23T03:30:21.694Z,92.09
2018-01-23T03:31:21.717Z,91.66
2018-01-23T03:32:21.722Z,92.33
2018-01-23T03:33:21.740Z,91.85
2018-01-23T03:34:21.513Z,92.04
2018-01-23T03:35:21.812Z,91.99
2018-01-23T03:36:21.789Z,92.09
2018-01-23T03:37:21.792Z,91.8
2018-01-23T03:38:21.556Z,92.09
2018-01-23T03:39:21.570Z,91.99
2018-01-23T03:40:21.834Z,91.8
2018-01-23T03:41:21.851Z,91.9
2018-01-23T03:42:21.867Z,91.99
2018-01-23T03:43:21.626Z,92.09
2018-01-23T03:44:21.639Z,91.9
2018-01-23T03:45:21.908Z,91.9
2018-01-23T03:46:21.917Z,91.99
2018-01-23T03:47:21.932Z,91.8
2018-01-23T03:48:21.962Z,92.57
2018-01-23T03:49:21.958Z,91.8
2018-01-23T03:50:21.976Z,91.99
2018-01-23T03:51:21.736Z,91.42
2018-01-23T03:52:21.999Z,91.94
2018-01-23T03:53:22.013Z,91.9
2018-01-23T03:54:22.032Z,92.42
2018-01-23T03:55:22.043Z,91.52
2018-01-23T03:56:22.057Z,91.33
2018-01-23T03:57:22.069Z,91.33
2018-01-23T03:58:22.086Z,91.61
2018-01-23T03:59:21.846Z,91.42
2018-01-23T04:00:21.861Z,91.52
2018-01-23T04:01:22.128Z,91.61
2018-01-23T04:02:22.145Z,91.24
2018-01-23T04:03:22.155Z,91.05
2018-01-23T04:04:21.916Z,91.14
2018-01-23T04:05:22.190Z,90.67
2018-01-23T04:06:22.198Z,91.61
2018-01-23T04:07:22.215Z,91.05
2018-01-23T04:08:22.226Z,91.05
2018-01-23T04:09:22.238Z,91.42
2018-01-23T04:10:22.252Z,90.76
2018-01-23T04:11:22.016Z,91.24
2018-01-23T04:12:22.281Z,91.05
2018-01-23T04:13:22.295Z,90.86
2018-01-23T04:14:22.058Z,90.76
2018-01-23T04:15:22.071Z,91.14
2018-01-23T04:16:22.336Z,90.86
2018-01-23T04:17:22.100Z,90.48
2018-01-23T04:18:22.116Z,90.67
2018-01-23T04:19:37.052Z,90.86
2018-01-23T04:20:22.391Z,91.05
2018-01-23T04:21:22.407Z,91.42
2018-01-23T04:22:22.423Z,91.52
2018-01-23T04:23:22.438Z,91.61
2018-01-23T04:24:22.468Z,91.52
2018-01-23T04:25:22.465Z,91.42
2018-01-23T04:26:22.477Z,91.52
2018-01-23T04:27:22.499Z,90.67
2018-01-23T04:28:22.505Z,90.57
2018-01-23T04:29:22.518Z,90.95
2018-01-23T04:30:22.282Z,90.48
2018-01-23T04:31:22.546Z,91.05
2018-01-23T04:32:22.562Z,90.95
2018-01-23T04:33:22.575Z,90.48
2018-01-23T04:34:22.336Z,90.57
2018-01-23T04:35:22.604Z,91.05
2018-01-23T04:36:22.365Z,90.76
2018-01-23T04:37:22.637Z,90.76
2018-01-23T04:38:22.647Z,90.86
2018-01-23T04:39:22.668Z,90.95
2018-01-23T04:40:22.672Z,90.57
2018-01-23T04:41:22.686Z,90.38
2018-01-23T04:42:22.452Z,90.67
2018-01-23T04:43:22.714Z,91.05
2018-01-23T04:44:22.477Z,90.38
2018-01-23T04:45:22.741Z,90.67
2018-01-23T04:46:22.763Z,90.43
2018-01-23T04:47:22.529Z,90.62
2018-01-23T04:48:22.787Z,90.48
2018-01-23T04:49:22.805Z,90.67
2018-01-23T04:50:22.812Z,90.48
2018-01-23T04:51:22.830Z,90.95
2018-01-23T04:52:22.842Z,91
2018-01-23T04:53:22.609Z,90.62
2018-01-23T04:54:22.877Z,90.67
2018-01-23T04:55:22.634Z,90.43
2018-01-23T04:56:22.649Z,90.95
2018-01-23T04:57:22.916Z,90.95
2018-01-23T04:58:22.676Z,91.05
2018-01-23T04:59:22.942Z,91.52
2018-01-23T05:00:22.956Z,91.42
2018-01-23T05:01:22.726Z,91.33
2018-01-23T05:02:22.731Z,91.42
2018-01-23T05:03:23.000Z,91.24
2018-01-23T05:04:23.012Z,91.42
2018-01-23T05:05:23.026Z,90.67
2018-01-23T05:06:22.787Z,90.9
2018-01-23T05:07:22.799Z,91.09
2018-01-23T05:08:23.082Z,90.71
2018-01-23T05:09:23.087Z,91.47
2018-01-23T05:10:22.844Z,90.52
2018-01-23T05:11:23.112Z,90.43
2018-01-23T05:12:23.121Z,90.81
2018-01-23T05:13:23.141Z,90.9
2018-01-23T05:14:23.156Z,90.9
2018-01-23T05:15:22.922Z,91.47
2018-01-23T05:16:23.182Z,90.33
2018-01-23T05:17:22.945Z,90.43
2018-01-23T05:18:23.217Z,90.81
2018-01-23T05:19:23.224Z,90.71
2018-01-23T05:20:23.237Z,90.48
2018-01-23T05:21:23.253Z,90.67
2018-01-23T05:22:23.277Z,90.86
2018-01-23T05:23:23.281Z,90.86
2018-01-23T05:24:23.045Z,90.95
2018-01-23T05:25:23.339Z,91.05
2018-01-23T05:26:23.073Z,90.95
2018-01-23T05:27:23.337Z,90.76
2018-01-23T05:28:23.352Z,91.05
2018-01-23T05:29:23.114Z,90.76
2018-01-23T05:30:23.140Z,91.05
2018-01-23T05:31:23.142Z,91.24
2018-01-23T05:32:23.156Z,91.42
2018-01-23T05:33:23.428Z,91.52
2018-01-23T05:34:23.484Z,91.61
2018-01-23T05:35:23.201Z,91.42
2018-01-23T05:36:23.465Z,91.42
2018-01-23T05:37:23.479Z,90.95
2018-01-23T05:38:23.241Z,91.61
2018-01-23T05:39:23.257Z,91.24
2018-01-23T05:40:23.526Z,91.33
2018-01-23T05:41:23.286Z,91.24
2018-01-23T05:42:23.299Z,91.52
2018-01-23T05:43:23.568Z,91.61
2018-01-23T05:44:23.334Z,91.52
2018-01-23T05:45:23.600Z,91.05
2018-01-23T05:46:23.357Z,91.42
2018-01-23T05:47:23.623Z,91.38
2018-01-23T05:48:23.385Z,91.09
2018-01-23T05:49:23.643Z,90.67
2018-01-23T05:50:23.664Z,90.67
2018-01-23T05:51:23.694Z,90.86
2018-01-23T05:52:23.694Z,90.86
2018-01-23T05:53:23.706Z,90.38
2018-01-23T05:54:23.737Z,90.48
2018-01-23T05:55:23.485Z,90.71
2018-01-23T05:56:23.748Z,90.48
2018-01-23T05:57:23.762Z,90.76
2018-01-23T05:58:23.532Z,90.67
2018-01-23T05:59:23.558Z,90.57
2018-01-23T06:00:23.555Z,90.76
2018-01-23T06:01:23.570Z,90.67
2018-01-23T06:02:23.586Z,90.48
2018-01-23T06:03:23.850Z,90.86
2018-01-23T06:04:23.609Z,90.76
2018-01-23T06:05:23.876Z,90.48
2018-01-23T06:06:23.890Z,90.48
2018-01-23T06:07:23.655Z,90.9
2018-01-23T06:08:23.930Z,90.29
2018-01-23T06:09:23.681Z,90.52
2018-01-23T06:10:23.948Z,90.33
2018-01-23T06:11:23.960Z,90.05
2018-01-23T06:12:23.974Z,90.05
2018-01-23T06:13:23.737Z,90.81
2018-01-23T06:14:24.005Z,90.76
2018-01-23T06:15:24.017Z,90.1
2018-01-23T06:16:24.033Z,90.48
2018-01-23T06:17:23.793Z,90.86
2018-01-23T06:18:24.061Z,90.67
2018-01-23T06:19:23.825Z,90.38
2018-01-23T06:20:24.115Z,90.81
2018-01-23T06:21:23.854Z,90.57
2018-01-23T06:22:24.121Z,90.33
2018-01-23T06:23:24.155Z,91
2018-01-23T06:24:24.147Z,90.52
2018-01-23T06:25:23.911Z,90.86
2018-01-23T06:26:23.924Z,90.71
2018-01-23T06:27:24.194Z,90.48
2018-01-23T06:28:24.207Z,90.81
2018-01-23T06:29:24.229Z,90.76
2018-01-23T06:30:23.983Z,90.76
2018-01-23T06:31:24.247Z,90.67
2018-01-23T06:32:24.299Z,91.05
2018-01-23T06:33:24.030Z,90.48
2018-01-23T06:34:24.039Z,91.05
2018-01-23T06:35:24.305Z,90.86
2018-01-23T06:36:24.320Z,90.48
2018-01-23T06:37:24.347Z,90.67
2018-01-23T06:38:24.346Z,90.67
2018-01-23T06:39:24.366Z,91.05
2018-01-23T06:40:24.375Z,90.38
2018-01-23T06:41:24.139Z,90.86
2018-01-23T06:42:24.409Z,91.05
2018-01-23T06:43:24.421Z,91.09
2018-01-23T06:44:24.438Z,90.9
2018-01-23T06:45:24.448Z,90.62
2018-01-23T06:46:24.462Z,90.62
2018-01-23T06:47:24.477Z,90.24
2018-01-23T06:48:24.240Z,90.71
2018-01-23T06:49:24.505Z,91
2018-01-23T06:50:24.270Z,89.86
2018-01-23T06:51:24.284Z,89.86
2018-01-23T06:52:24.297Z,90.38
2018-01-23T06:53:24.312Z,90.76
2018-01-23T06:54:24.326Z,90.81
2018-01-23T06:55:24.595Z,90.33
2018-01-23T06:56:24.614Z,90.76
2018-01-23T06:57:24.619Z,90
2018-01-23T06:58:24.384Z,90.71
2018-01-23T06:59:24.396Z,90.52
2018-01-23T07:00:24.674Z,90.71
2018-01-23T07:01:24.680Z,90.62
2018-01-23T07:02:24.441Z,90.86
2018-01-23T07:03:24.459Z,90.67
2018-01-23T07:04:24.472Z,90.67
2018-01-23T07:05:24.759Z,90.43
2018-01-23T07:06:24.766Z,90.62
2018-01-23T07:07:24.763Z,90.71
2018-01-23T07:08:24.867Z,90.43
2018-01-23T07:09:24.799Z,90.52
2018-01-23T07:10:24.810Z,90.71
2018-01-23T07:11:24.825Z,90.05
2018-01-23T07:12:24.589Z,90.24
2018-01-23T07:13:24.604Z,90.81
2018-01-23T07:14:24.617Z,90.24
2018-01-23T07:15:24.882Z,90.71
2018-01-23T07:16:24.907Z,90.14
2018-01-23T07:17:24.658Z,89.86
2018-01-23T07:18:24.924Z,89.86
2018-01-23T07:19:24.689Z,90.05
2018-01-23T07:20:24.955Z,90.81
2018-01-23T07:21:24.993Z,90.33
2018-01-23T07:22:24.738Z,91.09
2018-01-23T07:23:24.998Z,90.57
2018-01-23T07:24:25.034Z,90.9
2018-01-23T07:25:24.783Z,90.81
2018-01-23T07:26:39.716Z,90.71
2018-01-23T07:27:24.807Z,90.81
2018-01-23T07:28:24.820Z,90.43
2018-01-23T07:29:25.088Z,90.81
2018-01-23T07:30:24.850Z,90.81
2018-01-23T07:31:24.864Z,90.71
2018-01-23T07:32:24.880Z,90.9
2018-01-23T07:33:25.145Z,90.52
2018-01-23T07:34:25.165Z,90.71
2018-01-23T07:35:25.185Z,90.81
2018-01-23T07:36:24.938Z,90.62
2018-01-23T07:37:24.952Z,90.52
2018-01-23T07:38:25.228Z,90.71
2018-01-23T07:39:24.980Z,90.9
2018-01-23T07:40:25.246Z,90.81
2018-01-23T07:41:25.011Z,90.52
2018-01-23T07:42:25.023Z,90.62
2018-01-23T07:43:25.291Z,90.71
2018-01-23T07:44:25.074Z,90.71
2018-01-23T07:45:25.069Z,90.71
2018-01-23T07:46:25.083Z,90.52
2018-01-23T07:47:25.368Z,90.81
2018-01-23T07:48:25.365Z,89.95
2018-01-23T07:49:25.378Z,90.62
2018-01-23T07:50:25.411Z,90.81
2018-01-23T07:51:25.408Z,90.62
2018-01-23T07:52:25.423Z,90.81
2018-01-23T07:53:25.188Z,90.62
2018-01-23T07:54:25.454Z,90.52
2018-01-23T07:55:25.464Z,90.71
2018-01-23T07:56:25.233Z,90.71
2018-01-23T07:57:25.245Z,90.9
2018-01-23T07:58:25.532Z,90.33
2018-01-23T07:59:25.527Z,90.05
2018-01-23T08:00:25.545Z,90.24
2018-01-23T08:01:25.557Z,89.86
2018-01-23T08:02:25.320Z,89.86
2018-01-23T08:03:25.591Z,90.14
2018-01-23T08:04:25.602Z,89.95
2018-01-23T08:05:25.362Z,90.24
2018-01-23T08:06:25.715Z,89.95
2018-01-23T08:07:25.392Z,90.14
2018-01-23T08:08:25.410Z,89.95
2018-01-23T08:09:25.425Z,89.86
2018-01-23T08:10:25.694Z,90.05
2018-01-23T08:11:25.706Z,89.58
2018-01-23T08:12:25.720Z,90.05
2018-01-23T08:13:25.485Z,90.14
2018-01-23T08:14:25.750Z,89.95
2018-01-23T08:15:25.764Z,89.86
2018-01-23T08:16:25.541Z,90.24
2018-01-23T08:17:25.544Z,89.86
2018-01-23T08:18:25.808Z,89.86
2018-01-23T08:19:25.829Z,90.14
2018-01-23T08:20:25.839Z,89.67
2018-01-23T08:21:25.852Z,90.24
2018-01-23T08:22:25.617Z,90.24
2018-01-23T08:23:25.883Z,89.67
2018-01-23T08:24:25.648Z,89.39
2018-01-23T08:25:25.660Z,89.39
2018-01-23T08:26:25.676Z,89.58
2018-01-23T08:27:25.693Z,89.29
2018-01-23T08:28:25.961Z,89.67
2018-01-23T08:29:25.722Z,89.29
2018-01-23T08:30:25.985Z,90.05
2018-01-23T08:31:26.013Z,90.05
2018-01-23T08:32:26.021Z,89.86
2018-01-23T08:33:26.034Z,89.86
2018-01-23T08:34:26.057Z,89.95
2018-01-23T08:35:26.061Z,89.58
2018-01-23T08:36:26.079Z,89.67
2018-01-23T08:37:26.090Z,89.2
2018-01-23T08:38:26.107Z,89.58
2018-01-23T08:39:25.876Z,89.29
2018-01-23T08:40:26.135Z,89.67
2018-01-23T08:41:26.149Z,89.2
2018-01-23T08:42:26.165Z,89.39
2018-01-23T08:43:25.934Z,89
2018-01-23T08:44:26.245Z,89
2018-01-23T08:45:26.216Z,89.29
2018-01-23T08:46:25.972Z,89.1
2018-01-23T08:47:25.990Z,89.58
2018-01-23T08:48:26.003Z,89.2
2018-01-23T08:49:26.268Z,89
2018-01-23T08:50:26.062Z,89.2
2018-01-23T08:51:26.376Z,89.1
2018-01-23T08:52:26.062Z,89.43
2018-01-23T08:53:26.331Z,89.05
2018-01-23T08:54:26.345Z,89.05
2018-01-23T08:55:26.373Z,88.57
2018-01-23T08:56:26.122Z,88.29
2018-01-23T08:57:26.390Z,89.2
2018-01-23T08:58:26.151Z,89.2
2018-01-23T08:59:26.416Z,88.95
2018-01-23T09:00:26.432Z,89.05
2018-01-23T09:01:26.199Z,88.76
2018-01-23T09:02:26.465Z,88.39
2018-01-23T09:03:26.481Z,88.48
2018-01-23T09:04:26.240Z,88.39
2018-01-23T09:05:26.256Z,88.57
2018-01-23T09:06:26.532Z,88.48
2018-01-23T09:07:26.556Z,88.76
2018-01-23T09:08:26.345Z,89.29
2018-01-23T09:09:26.317Z,89
2018-01-23T09:10:26.600Z,89.1
2018-01-23T09:11:26.599Z,89.39
2018-01-23T09:12:26.614Z,89.48
2018-01-23T09:13:26.630Z,89.39
2018-01-23T09:14:26.653Z,89.1
2018-01-23T09:15:26.661Z,90.14
2018-01-23T09:16:26.426Z,89.39
2018-01-23T09:17:26.691Z,89.58
2018-01-23T09:18:26.703Z,89.58
2018-01-23T09:19:26.717Z,90.24
2018-01-23T09:20:26.782Z,90.33
2018-01-23T09:21:26.498Z,90.14
2018-01-23T09:22:26.531Z,89.67
2018-01-23T09:23:26.528Z,89.39
2018-01-23T09:24:26.794Z,89.39
2018-01-23T09:25:26.808Z,89.2
2018-01-23T09:26:26.823Z,89.2
2018-01-23T09:27:26.838Z,89.29
2018-01-23T09:28:26.856Z,89.2
2018-01-23T09:29:26.869Z,89.53
2018-01-23T09:30:26.653Z,88.67
2018-01-23T09:31:26.900Z,88.81
2018-01-23T09:32:26.921Z,89.43
2018-01-23T09:33:26.933Z,88.39
2018-01-23T09:34:26.696Z,88.76
2018-01-23T09:35:26.721Z,88.76
2018-01-23T09:36:26.724Z,88.39
2018-01-23T09:37:26.994Z,88.48
2018-01-23T09:38:27.054Z,88.2
2018-01-23T09:39:26.768Z,88.48
2018-01-23T09:40:27.035Z,88.39
2018-01-23T09:41:26.800Z,88.67
2018-01-23T09:42:26.814Z,88.2
2018-01-23T09:43:27.079Z,88.2
2018-01-23T09:44:27.095Z,88.48
2018-01-23T09:45:27.172Z,88.2
2018-01-23T09:46:27.142Z,88.39
2018-01-23T09:47:27.143Z,88.39
2018-01-23T09:48:27.158Z,87.53
2018-01-23T09:49:26.920Z,88.1
2018-01-23T09:50:26.937Z,87.72
2018-01-23T09:51:27.205Z,88.48
2018-01-23T09:52:27.223Z,88.39
2018-01-23T09:53:26.982Z,87.82
2018-01-23T09:54:26.997Z,87.53
2018-01-23T09:55:27.265Z,88.48
2018-01-23T09:56:27.028Z,88.29
2018-01-23T09:57:27.044Z,88.01
2018-01-23T09:58:27.353Z,88.39
2018-01-23T09:59:27.323Z,88.01
2018-01-23T10:00:27.342Z,88.2
2018-01-23T10:01:27.368Z,88.2
2018-01-23T10:02:27.117Z,88.1
2018-01-23T10:03:27.135Z,88.1
2018-01-23T10:04:27.148Z,87.86
2018-01-23T10:05:27.181Z,87.38
2018-01-23T10:06:27.191Z,87.57
2018-01-23T10:07:27.449Z,87.38
2018-01-23T10:08:27.461Z,87.1
2018-01-23T10:09:27.227Z,86.82
2018-01-23T10:10:27.492Z,86.63
2018-01-23T10:11:27.257Z,87.01
2018-01-23T10:12:27.269Z,87.57
2018-01-23T10:13:27.553Z,87.1
2018-01-23T10:14:27.554Z,86.72
2018-01-23T10:15:27.575Z,87.1
2018-01-23T10:16:27.585Z,87.1
2018-01-23T10:17:27.600Z,87.57
2018-01-23T10:18:27.363Z,86.82
2018-01-23T10:19:27.630Z,86.82
2018-01-23T10:20:27.648Z,87.19
2018-01-23T10:21:27.662Z,86.82
2018-01-23T10:22:27.677Z,86.05
2018-01-23T10:23:27.441Z,86.91
2018-01-23T10:24:27.460Z,86.63
2018-01-23T10:25:27.727Z,87.01
2018-01-23T10:26:27.741Z,86.15
2018-01-23T10:27:27.758Z,86.53
2018-01-23T10:28:27.770Z,86.72
2018-01-23T10:29:27.789Z,86.43
2018-01-23T10:30:27.808Z,86.63
2018-01-23T10:31:27.816Z,86.05
2018-01-23T10:32:27.581Z,86.34
2018-01-23T10:33:27.848Z,86.05
2018-01-23T10:34:27.863Z,86.34
2018-01-23T10:35:27.629Z,86.34
2018-01-23T10:36:27.895Z,86.53
2018-01-23T10:37:27.658Z,86.82
2018-01-23T10:38:27.932Z,86.91
2018-01-23T10:39:27.940Z,86.72
2018-01-23T10:40:27.706Z,87.1
2018-01-23T10:41:27.977Z,87.1
2018-01-23T10:42:27.988Z,86.82
2018-01-23T10:43:28.002Z,86.15
2018-01-23T10:44:28.019Z,87.1
2018-01-23T10:45:27.784Z,87.1
2018-01-23T10:46:27.796Z,86.82
2018-01-23T10:47:28.063Z,86.72
2018-01-23T10:48:27.827Z,87.29
2018-01-23T10:49:27.846Z,87.38
2018-01-23T10:50:27.857Z,87.29
2018-01-23T10:51:28.129Z,86.82
2018-01-23T10:52:27.888Z,86.82
2018-01-23T10:53:27.904Z,86.82
2018-01-23T10:54:27.920Z,87.38
2018-01-23T10:55:28.187Z,86.82
2018-01-23T10:56:28.254Z,86.91
2018-01-23T10:57:27.968Z,86.91
2018-01-23T10:58:28.232Z,87.38
2018-01-23T10:59:28.264Z,87.01
2018-01-23T11:00:28.263Z,86.82
2018-01-23T11:01:28.027Z,86.15
2018-01-23T11:02:28.294Z,86.82
2018-01-23T11:03:28.309Z,87.01
2018-01-23T11:04:28.073Z,87.48
2018-01-23T11:05:28.089Z,87.01
2018-01-23T11:06:28.106Z,87.57
2018-01-23T11:07:28.375Z,87.01
2018-01-23T11:08:28.386Z,86.53
2018-01-23T11:09:28.403Z,86.53
2018-01-23T11:10:28.165Z,86.53
2018-01-23T11:11:28.448Z,85.96
2018-01-23T11:12:28.450Z,85.86
2018-01-23T11:13:28.468Z,86.24
2018-01-23T11:14:28.490Z,86.05
2018-01-23T11:15:28.245Z,85.39
2018-01-23T11:16:28.514Z,85.96
2018-01-23T11:17:28.530Z,86.63
2018-01-23T11:18:28.297Z,86.53
2018-01-23T11:19:28.559Z,86.34
2018-01-23T11:20:28.576Z,86.82
2018-01-23T11:21:28.336Z,86.82
2018-01-23T11:22:28.353Z,86.34
2018-01-23T11:23:28.621Z,86.72
2018-01-23T11:24:28.385Z,86.34
2018-01-23T11:25:28.399Z,85.86
2018-01-23T11:26:28.425Z,85.77
2018-01-23T11:27:28.682Z,86.15
2018-01-23T11:28:28.447Z,85.39
2018-01-23T11:29:28.712Z,85.39
2018-01-23T11:30:28.728Z,85.3
2018-01-23T11:31:28.747Z,85.43
2018-01-23T11:32:28.761Z,84.91
2018-01-23T11:33:28.523Z,84.82
2018-01-23T11:34:28.794Z,84.82
2018-01-23T11:35:28.809Z,85.15
2018-01-23T11:36:28.842Z,85.01
2018-01-23T11:37:28.839Z,84.63
2018-01-23T11:38:28.891Z,84.77
2018-01-23T11:39:28.870Z,85.53
2018-01-23T11:40:28.885Z,84.58
2018-01-23T11:41:28.903Z,85.01
2018-01-23T11:42:28.666Z,85.49
2018-01-23T11:43:28.682Z,85.77
2018-01-23T11:44:28.945Z,86.05
2018-01-23T11:45:28.714Z,85.49
2018-01-23T11:46:28.740Z,85.39
2018-01-23T11:47:28.745Z,85.49
2018-01-23T11:48:28.775Z,85.3
2018-01-23T11:49:29.029Z,85.77
2018-01-23T11:50:28.791Z,86.34
2018-01-23T11:51:29.060Z,85.53
2018-01-23T11:52:29.075Z,85.53
2018-01-23T11:53:29.092Z,85.15
2018-01-23T11:54:28.855Z,84.58
2018-01-23T11:55:29.121Z,85.05
2018-01-23T11:56:29.139Z,85.05
2018-01-23T11:57:28.900Z,84.67
2018-01-23T11:58:29.169Z,84.58
2018-01-23T11:59:29.185Z,84.77
2018-01-23T12:00:29.202Z,84.2
2018-01-23T12:01:28.964Z,84.2
2018-01-23T12:02:28.983Z,84.39
2018-01-23T12:03:29.251Z,84.77
2018-01-23T12:04:29.265Z,84.86
2018-01-23T12:05:29.281Z,84.58
2018-01-23T12:06:29.296Z,85.05
2018-01-23T12:07:29.313Z,84.58
2018-01-23T12:08:29.079Z,85.15
2018-01-23T12:09:29.093Z,85.05
2018-01-23T12:10:29.124Z,84.39
2018-01-23T12:11:29.376Z,84.2
2018-01-23T12:12:29.397Z,84.67
2018-01-23T12:13:29.409Z,83.82
2018-01-23T12:14:29.439Z,84.1
2018-01-23T12:15:29.188Z,83.53
2018-01-23T12:16:29.207Z,83.62
2018-01-23T12:17:29.473Z,84.2
2018-01-23T12:18:29.239Z,83.91
2018-01-23T12:19:29.513Z,83.76
2018-01-23T12:20:29.268Z,84.01
2018-01-23T12:21:29.537Z,84.01
2018-01-23T12:22:29.302Z,83.62
2018-01-23T12:23:29.570Z,83.76
2018-01-23T12:24:29.585Z,83.19
2018-01-23T12:25:29.600Z,83.19
2018-01-23T12:26:29.618Z,83.1
2018-01-23T12:27:29.382Z,83
2018-01-23T12:28:29.399Z,83.29
2018-01-23T12:29:29.474Z,83.34
2018-01-23T12:30:29.682Z,83.67
2018-01-23T12:31:29.447Z,83.34
2018-01-23T12:32:29.476Z,84.29
2018-01-23T12:33:29.478Z,83.44
2018-01-23T12:34:29.752Z,83.62
2018-01-23T12:35:29.513Z,83.48
2018-01-23T12:36:29.779Z,83.29
2018-01-23T12:37:29.795Z,83
2018-01-23T12:38:29.813Z,83.19
2018-01-23T12:39:29.577Z,84.05
2018-01-23T12:40:29.844Z,82.71
2018-01-23T12:41:29.860Z,83
2018-01-23T12:42:29.627Z,82.09
2018-01-23T12:43:29.641Z,82.15
2018-01-23T12:44:29.658Z,82.15
2018-01-23T12:45:29.928Z,82.81
2018-01-23T12:46:29.690Z,83.39
2018-01-23T12:47:29.716Z,82.81
2018-01-23T12:48:29.725Z,82.53
2018-01-23T12:49:29.745Z,82.71
2018-01-23T12:50:30.014Z,82.81
2018-01-23T12:51:29.776Z,81.96
2018-01-23T12:52:30.042Z,82.62
2018-01-23T12:53:30.063Z,83.1
2018-01-23T12:54:30.088Z,82.62
2018-01-23T12:55:30.093Z,82.43
2018-01-23T12:56:29.858Z,83.04